Estación Meteorológica Peña el Pijo (Robertgarden) [ 12/17/17 01:26:17 CET ]

Fecha Hora Presion(HPa) Temp (°C) Humedad % Rocio (°C) Viento ( m/s) Direccion Lluvia 1Hora(mm) Lluvia 24H(mm) LLuvia Total(mm)
2017-Oct-17 01:01:47 1017.100 8.4 77 4.6         1457.65
2017-Oct-17 02:01:51 1016.700 8.3 78 4.7         1457.65
2017-Oct-17 03:02:03 1016.300 7.6 80 4.4         1457.65
2017-Oct-17 04:02:01 1015.800 6.9 81 3.9         1457.65
2017-Oct-17 05:06:08 1015.300 6.1 82 3.2         1457.65
2017-Oct-17 06:01:43 1015.200 5.4 84 2.9         1457.65
2017-Oct-17 07:01:48 1015.000 5.1 85 2.8         1457.65
2017-Oct-17 08:01:42 1014.900 5.3 85 2.9         1457.65
2017-Oct-17 09:01:38 1015.400 5.2 86 3.0         1457.65
2017-Oct-17 10:01:33 1015.600 11.4 87 9.3         1457.65
2017-Oct-17 11:01:46 1015.100 18.8 61 11.1         1457.65
2017-Oct-17 12:01:46 1014.900 19.3 53 9.5         1457.65
2017-Oct-17 13:01:42 1014.600 21.8 43 8.6         1457.65
2017-Oct-17 14:01:38 1013.800 21.6 42 8.1         1457.65
2017-Oct-17 15:01:36 1013.300 21.3 41 7.5         1457.65
2017-Oct-17 16:01:52 1012.700 21.4 45 8.9         1457.65
2017-Oct-17 17:01:43 1012.500 20.2 47 8.5         1457.65
2017-Oct-17 18:01:46 1012.300 20.3 46 8.2         1457.65
2017-Oct-17 19:01:27 1012.300 18.7 48 7.4 0.7 N     1457.65
2017-Oct-17 20:01:36 1011.900 17.4 53 7.7         1457.65
2017-Oct-17 21:01:39 1012.000 14.9 59 6.9         1457.65
2017-Oct-17 22:01:37 1012.100 13.0 63 6.1         1457.65
2017-Oct-17 23:01:25 1012.100 12.1 68 6.3         1457.65

Temperatura Máxima:21°    Temperatura Mínima:
Presión Máxima:1017.100 Hpa    Presión Mínima:1011.900 Hpa


Volver